Time;durP1;ratioP1;P1;durP2;ratioP2;P2;SDS_P1;SDS_P2;PMS_P1;PMS_P2;Temp;Humidity;BMP_temperature;BMP_pressure;BME280_temperature;BME280_humidity;BME280_pressure;Samples;Min_cycle;Max_cycle;Signal;HPM_P1;HPM_P2
2023/09/24 00:01:05;;;;;;;2.60;2.50;;;13.90;99.90;;;;;;5010540;28;20204;-65
2023/09/24 00:03:31;;;;;;;3.10;2.30;;;13.90;99.90;;;;;;5018813;28;20741;-65
2023/09/24 00:05:59;;;;;;;2.83;2.60;;;13.90;99.90;;;;;;5016499;28;20261;-66
2023/09/24 00:08:24;;;;;;;4.77;3.00;;;13.90;99.90;;;;;;5018940;28;20262;-66
2023/09/24 00:10:52;;;;;;;3.17;2.87;;;13.90;99.90;;;;;;5018227;28;20211;-66
2023/09/24 00:13:22;;;;;;;5.97;3.50;;;13.90;99.90;;;;;;4999854;28;20564;-65
2023/09/24 00:15:49;;;;;;;3.27;2.57;;;13.90;99.90;;;;;;5011421;28;20256;-65
2023/09/24 00:18:15;;;;;;;2.93;2.73;;;13.90;99.90;;;;;;5018300;28;20198;-66
2023/09/24 00:20:41;;;;;;;3.33;2.70;;;14.00;99.90;;;;;;5015685;28;20187;-63
2023/09/24 00:23:08;;;;;;;4.77;3.07;;;14.00;99.90;;;;;;5014614;28;20200;-63
2023/09/24 00:25:33;;;;;;;5.90;3.17;;;14.10;99.90;;;;;;5016839;28;20645;-63
2023/09/24 00:27:59;;;;;;;3.13;2.57;;;13.90;99.90;;;;;;4991038;28;20706;-65
2023/09/24 00:30:25;;;;;;;3.67;2.30;;;14.00;99.90;;;;;;5010816;28;20200;-64
2023/09/24 00:32:53;;;;;;;2.70;2.50;;;13.90;99.90;;;;;;5016953;28;20244;-65
2023/09/24 00:35:19;;;;;;;4.00;3.10;;;13.80;99.90;;;;;;5010125;28;20738;-65
2023/09/24 00:37:44;;;;;;;2.93;2.57;;;13.70;99.90;;;;;;5011190;28;20196;-65
2023/09/24 00:40:11;;;;;;;3.03;2.83;;;13.80;99.90;;;;;;5018122;28;20932;-65
2023/09/24 00:42:37;;;;;;;3.10;2.90;;;13.70;99.90;;;;;;4999334;28;20779;-65
2023/09/24 00:45:10;;;;;;;3.30;2.70;;;13.60;99.90;;;;;;5012139;28;20241;-65
2023/09/24 00:47:37;;;;;;;4.63;3.00;;;13.50;99.90;;;;;;5010391;28;20327;-64
2023/09/24 00:50:08;;;;;;;3.40;3.10;;;13.50;99.90;;;;;;5009906;28;20238;-64
2023/09/24 00:52:34;;;;;;;3.83;2.80;;;13.50;99.90;;;;;;5001289;28;20298;-64
2023/09/24 00:55:03;;;;;;;3.13;2.57;;;13.60;99.90;;;;;;5011924;28;20250;-65
2023/09/24 00:57:28;;;;;;;4.40;3.20;;;13.70;99.90;;;;;;5016483;28;20210;-64
2023/09/24 00:59:55;;;;;;;3.60;2.87;;;13.70;99.90;;;;;;5012786;28;20237;-64
2023/09/24 01:02:21;;;;;;;6.13;3.30;;;13.60;99.90;;;;;;5010752;28;20309;-64
2023/09/24 01:04:48;;;;;;;3.40;3.07;;;13.60;99.90;;;;;;5012943;28;20277;-64
2023/09/24 01:07:14;;;;;;;4.20;3.80;;;13.40;99.90;;;;;;4997917;28;20207;-64
2023/09/24 01:09:42;;;;;;;2.80;2.53;;;13.20;99.90;;;;;;5015843;28;20277;-64
2023/09/24 01:12:23;;;;;;;4.43;3.10;;;13.20;99.90;;;;;;5020068;28;20280;-63
2023/09/24 01:14:49;;;;;;;4.27;3.23;;;13.10;99.90;;;;;;5012074;28;20192;-64
2023/09/24 01:17:15;;;;;;;4.40;3.37;;;13.10;99.90;;;;;;5015028;28;20245;-63
2023/09/24 01:19:42;;;;;;;3.10;2.90;;;13.10;99.90;;;;;;5019146;28;20195;-65
2023/09/24 01:22:08;;;;;;;3.77;3.13;;;13.00;99.90;;;;;;5017085;28;20213;-64
2023/09/24 01:24:33;;;;;;;3.27;2.80;;;13.00;99.90;;;;;;5012124;28;20203;-64
2023/09/24 01:26:59;;;;;;;3.57;3.10;;;13.10;99.90;;;;;;5022258;28;20206;-65
2023/09/24 01:29:26;;;;;;;4.30;3.07;;;13.10;99.90;;;;;;5015309;28;20223;-64
2023/09/24 01:31:52;;;;;;;3.07;2.77;;;13.10;99.90;;;;;;5019192;28;20680;-63
2023/09/24 01:34:18;;;;;;;4.30;3.30;;;13.10;99.90;;;;;;5009480;28;20202;-64
2023/09/24 01:36:44;;;;;;;3.50;3.20;;;13.00;99.90;;;;;;4994643;28;20191;-63
2023/09/24 01:39:09;;;;;;;3.93;3.00;;;12.90;99.90;;;;;;5010853;28;20643;-64
2023/09/24 01:41:35;;;;;;;3.20;2.93;;;13.00;99.90;;;;;;5016471;28;20253;-64
2023/09/24 01:44:01;;;;;;;3.70;3.40;;;12.90;99.90;;;;;;5013558;28;20735;-64
2023/09/24 01:46:26;;;;;;;4.40;3.47;;;13.00;99.90;;;;;;5012690;28;20200;-64
2023/09/24 01:48:54;;;;;;;3.77;3.13;;;13.10;99.90;;;;;;5014019;28;20222;-64
2023/09/24 01:51:23;;;;;;;3.00;2.80;;;13.10;99.90;;;;;;4989760;28;20322;-63
2023/09/24 01:53:49;;;;;;;3.97;3.43;;;13.30;99.90;;;;;;5013427;28;20298;-63
2023/09/24 01:56:17;;;;;;;5.37;3.60;;;13.30;99.90;;;;;;4989539;28;20902;-63
2023/09/24 01:58:43;;;;;;;3.10;2.80;;;13.30;99.90;;;;;;4994394;28;20375;-64
2023/09/24 02:01:09;;;;;;;3.03;2.83;;;13.30;99.90;;;;;;5016883;28;20303;-65
2023/09/24 02:03:35;;;;;;;4.10;3.10;;;13.30;99.90;;;;;;4993538;28;20238;-59
2023/09/24 02:06:01;;;;;;;3.13;2.70;;;13.30;99.90;;;;;;5019278;28;20206;-59
2023/09/24 02:08:26;;;;;;;4.30;2.87;;;13.40;99.90;;;;;;5021684;28;20218;-59
2023/09/24 02:10:52;;;;;;;6.40;3.33;;;13.40;99.90;;;;;;5000134;28;20253;-62
2023/09/24 02:13:20;;;;;;;4.77;2.90;;;13.40;99.90;;;;;;5022696;28;20199;-63
2023/09/24 02:15:48;;;;;;;5.97;3.67;;;13.40;99.90;;;;;;5014876;28;20310;-62
2023/09/24 02:18:15;;;;;;;6.90;3.50;;;13.50;99.90;;;;;;5017139;28;20226;-71
2023/09/24 02:20:42;;;;;;;3.77;3.13;;;13.60;99.90;;;;;;5024052;28;20278;-70
2023/09/24 02:23:09;;;;;;;5.77;3.00;;;13.80;99.90;;;;;;5018773;28;20585;-71
2023/09/24 02:25:37;;;;;;;6.97;3.77;;;13.80;99.90;;;;;;5019514;28;20258;-71
2023/09/24 02:28:03;;;;;;;3.40;3.10;;;13.80;99.90;;;;;;5020454;28;20608;-62
2023/09/24 02:30:29;;;;;;;3.57;3.27;;;13.80;99.90;;;;;;5010150;28;20696;-71
2023/09/24 02:32:59;;;;;;;3.10;2.90;;;13.80;99.90;;;;;;5010160;28;20306;-71
2023/09/24 02:35:25;;;;;;;5.80;3.73;;;13.80;99.90;;;;;;5018299;28;20270;-71
2023/09/24 02:37:52;;;;;;;4.23;2.60;;;13.90;99.90;;;;;;5017483;28;20646;-70
2023/09/24 02:40:23;;;;;;;5.37;2.63;;;13.90;99.90;;;;;;5018682;28;20195;-69
2023/09/24 02:42:53;;;;;;;3.53;2.80;;;14.00;99.90;;;;;;5013198;28;20291;-61
2023/09/24 02:45:19;;;;;;;3.63;3.33;;;13.90;99.90;;;;;;5015256;28;20211;-61
2023/09/24 02:47:48;;;;;;;3.60;3.30;;;13.90;99.90;;;;;;5018642;28;20227;-69
2023/09/24 02:50:13;;;;;;;3.33;3.03;;;14.00;99.90;;;;;;4998506;28;20829;-68
2023/09/24 02:52:43;;;;;;;3.57;3.10;;;13.90;99.90;;;;;;5014649;28;20211;-67
2023/09/24 02:55:12;;;;;;;4.10;3.33;;;13.90;99.90;;;;;;5017695;28;20202;-68
2023/09/24 02:57:38;;;;;;;4.13;3.00;;;13.90;99.90;;;;;;5021697;28;20226;-68
2023/09/24 03:00:11;;;;;;;4.07;2.87;;;13.80;99.90;;;;;;5021648;28;20195;-68
2023/09/24 03:02:38;;;;;;;3.97;3.30;;;13.60;99.90;;;;;;5018958;28;20201;-69
2023/09/24 03:05:06;;;;;;;3.57;3.27;;;13.50;99.90;;;;;;5016787;28;20233;-68
2023/09/24 03:07:32;;;;;;;5.53;3.57;;;13.60;99.90;;;;;;4998373;28;20206;-67
2023/09/24 03:09:57;;;;;;;8.90;3.47;;;13.60;99.90;;;;;;5022715;28;20694;-68
2023/09/24 03:12:23;;;;;;;5.30;3.30;;;13.50;99.90;;;;;;5009142;28;20271;-67
2023/09/24 03:14:48;;;;;;;7.57;3.63;;;13.60;99.90;;;;;;5019396;28;20298;-67
2023/09/24 03:17:14;;;;;;;5.37;4.03;;;13.50;99.90;;;;;;5017572;28;20207;-67
2023/09/24 03:19:39;;;;;;;4.43;3.70;;;13.50;99.90;;;;;;4996393;28;20290;-68
2023/09/24 03:22:05;;;;;;;4.47;3.70;;;13.40;99.90;;;;;;5017039;28;20210;-67
2023/09/24 03:24:30;;;;;;;5.47;4.07;;;13.30;99.90;;;;;;5000611;28;20195;-67
2023/09/24 03:26:56;;;;;;;3.77;3.47;;;13.30;99.90;;;;;;5012368;28;20658;-68
2023/09/24 03:29:21;;;;;;;6.20;4.63;;;13.30;99.90;;;;;;5011327;28;20239;-68
2023/09/24 03:31:47;;;;;;;4.57;4.07;;;13.30;99.90;;;;;;5015966;28;20203;-69
2023/09/24 03:34:13;;;;;;;7.97;4.10;;;13.20;99.90;;;;;;5012962;28;20203;-68
2023/09/24 03:36:39;;;;;;;6.10;4.57;;;13.10;99.90;;;;;;5001840;28;20210;-67
2023/09/24 03:39:06;;;;;;;4.40;4.00;;;13.00;99.90;;;;;;5017998;28;20205;-67
2023/09/24 03:41:31;;;;;;;5.43;4.27;;;13.00;99.90;;;;;;5013967;28;20298;-68
2023/09/24 03:43:57;;;;;;;5.33;4.77;;;13.10;99.90;;;;;;4995637;28;20198;-67
2023/09/24 03:46:22;;;;;;;4.10;3.70;;;13.00;99.90;;;;;;5020417;28;20207;-68
2023/09/24 03:48:48;;;;;;;4.77;4.33;;;13.00;99.90;;;;;;5020261;28;20229;-68
2023/09/24 03:51:13;;;;;;;4.83;4.40;;;13.10;99.90;;;;;;5015876;28;20215;-69
2023/09/24 03:53:39;;;;;;;4.63;4.33;;;13.00;99.90;;;;;;5017211;28;20203;-67
2023/09/24 03:56:07;;;;;;;6.40;5.13;;;13.00;99.90;;;;;;5017335;28;20195;-67
2023/09/24 03:58:33;;;;;;;5.70;5.17;;;12.90;99.90;;;;;;4996708;28;20200;-68
2023/09/24 04:01:06;;;;;;;5.97;5.13;;;12.90;99.90;;;;;;5014978;28;20279;-68
2023/09/24 04:03:32;;;;;;;7.53;4.73;;;12.90;99.90;;;;;;5011594;28;20254;-65
2023/09/24 04:05:57;;;;;;;5.57;4.93;;;13.10;99.90;;;;;;5002790;28;20992;-64
2023/09/24 04:08:23;;;;;;;5.63;4.60;;;13.10;99.90;;;;;;4998458;28;20216;-69
2023/09/24 04:10:49;;;;;;;5.37;4.23;;;13.20;99.90;;;;;;4999751;28;20202;-64
2023/09/24 04:13:15;;;;;;;6.40;4.40;;;13.20;99.90;;;;;;5013076;28;20207;-63
2023/09/24 04:15:40;;;;;;;5.43;4.67;;;13.30;99.90;;;;;;5015727;28;20191;-64
2023/09/24 04:18:05;;;;;;;5.90;4.77;;;13.30;99.90;;;;;;5018311;28;20670;-63
2023/09/24 04:20:33;;;;;;;6.23;5.63;;;13.30;99.90;;;;;;5015550;28;20208;-64
2023/09/24 04:22:59;;;;;;;5.97;5.47;;;13.30;99.90;;;;;;5014141;28;20260;-63
2023/09/24 04:25:26;;;;;;;5.80;5.20;;;13.40;99.90;;;;;;5014697;28;20242;-63
2023/09/24 04:27:52;;;;;;;6.53;5.93;;;13.30;99.90;;;;;;5016931;28;20201;-64
2023/09/24 04:30:19;;;;;;;7.30;6.23;;;13.30;99.90;;;;;;5009485;28;20198;-65
2023/09/24 04:32:48;;;;;;;8.77;7.00;;;13.30;99.90;;;;;;5010920;28;20429;-67
2023/09/24 04:35:14;;;;;;;7.67;6.97;;;13.30;99.90;;;;;;5015356;28;20279;-66
2023/09/24 04:37:39;;;;;;;7.20;6.60;;;13.30;99.90;;;;;;5013909;28;20203;-66
2023/09/24 04:40:10;;;;;;;8.57;6.53;;;13.30;99.90;;;;;;5007292;28;20202;-66
2023/09/24 04:42:36;;;;;;;7.63;6.83;;;13.30;99.90;;;;;;5015511;28;20248;-65
2023/09/24 04:45:02;;;;;;;7.83;7.17;;;13.20;99.90;;;;;;5010975;28;20945;-71
2023/09/24 04:47:27;;;;;;;8.50;6.93;;;13.30;99.90;;;;;;5012962;28;20206;-71
2023/09/24 04:49:53;;;;;;;8.37;7.17;;;13.40;99.90;;;;;;5019032;28;20203;-66
2023/09/24 04:52:18;;;;;;;7.90;6.87;;;13.50;99.90;;;;;;5019561;28;20221;-66
2023/09/24 04:54:44;;;;;;;9.17;7.33;;;13.40;99.90;;;;;;5021540;28;20252;-66
2023/09/24 04:57:10;;;;;;;7.90;7.27;;;13.50;99.90;;;;;;4993521;28;20209;-66
2023/09/24 04:59:35;;;;;;;8.57;7.23;;;13.40;99.90;;;;;;5015136;28;20222;-66
2023/09/24 05:02:01;;;;;;;7.93;7.20;;;13.30;99.90;;;;;;5014711;28;20610;-66
2023/09/24 05:04:26;;;;;;;8.43;7.53;;;13.40;99.90;;;;;;5018090;28;20278;-66
2023/09/24 05:06:52;;;;;;;8.17;6.97;;;13.40;99.90;;;;;;5019772;28;20211;-65
2023/09/24 05:09:17;;;;;;;11.60;10.40;;;13.30;99.90;;;;;;5012277;28;20628;-65
2023/09/24 05:11:43;;;;;;;11.10;9.87;;;13.30;99.90;;;;;;4995719;28;20574;-66
2023/09/24 05:14:08;;;;;;;9.77;8.83;;;13.20;99.90;;;;;;5016262;28;20684;-65
2023/09/24 05:16:34;;;;;;;12.43;9.40;;;13.20;99.90;;;;;;5008902;28;20250;-67
2023/09/24 05:19:02;;;;;;;9.37;8.47;;;13.20;99.90;;;;;;5014720;28;20291;-68
2023/09/24 05:21:28;;;;;;;11.23;9.23;;;13.20;99.90;;;;;;4996870;28;20198;-64
2023/09/24 05:23:54;;;;;;;10.77;9.60;;;13.30;99.90;;;;;;5015471;28;20197;-64
2023/09/24 05:26:20;;;;;;;10.50;9.07;;;13.30;99.90;;;;;;5010222;28;20195;-65
2023/09/24 05:28:46;;;;;;;10.17;9.10;;;13.20;99.90;;;;;;5018891;28;20228;-65
2023/09/24 05:31:12;;;;;;;9.80;8.97;;;13.20;99.90;;;;;;5014635;28;20203;-65
2023/09/24 05:33:38;;;;;;;9.33;8.43;;;13.10;99.90;;;;;;5010171;28;20187;-65
2023/09/24 05:36:04;;;;;;;12.63;9.63;;;13.10;99.90;;;;;;5014799;28;20201;-65
2023/09/24 05:38:30;;;;;;;10.13;9.13;;;13.10;99.90;;;;;;5011704;28;20219;-65
2023/09/24 05:40:56;;;;;;;10.23;9.20;;;13.20;99.90;;;;;;5015464;28;20198;-66
2023/09/24 05:43:23;;;;;;;10.67;9.57;;;13.30;99.90;;;;;;5014404;28;20211;-65
2023/09/24 05:45:50;;;;;;;9.00;8.10;;;13.20;99.90;;;;;;5014001;28;20583;-65
2023/09/24 05:48:17;;;;;;;9.83;8.87;;;13.30;99.90;;;;;;5018647;28;20438;-64
2023/09/24 05:50:43;;;;;;;9.83;8.93;;;13.30;99.90;;;;;;5017937;28;20669;-66
2023/09/24 05:53:10;;;;;;;8.87;8.07;;;13.40;99.90;;;;;;5018989;28;20238;-64
2023/09/24 05:55:36;;;;;;;9.67;6.87;;;13.50;99.90;;;;;;5014769;28;20307;-64
2023/09/24 05:58:06;;;;;;;8.50;7.63;;;13.50;99.90;;;;;;5018633;28;20290;-65
2023/09/24 06:00:34;;;;;;;8.67;7.60;;;13.60;99.90;;;;;;5022798;28;20294;-64
2023/09/24 06:03:00;;;;;;;6.70;6.10;;;13.70;99.90;;;;;;5018607;28;20220;-65
2023/09/24 06:05:26;;;;;;;12.53;7.37;;;13.70;99.90;;;;;;5020646;28;20558;-65
2023/09/24 06:07:51;;;;;;;10.00;6.07;;;13.70;99.90;;;;;;5014219;28;20191;-65
2023/09/24 06:10:18;;;;;;;8.93;6.40;;;13.80;99.90;;;;;;5022615;28;20879;-64
2023/09/24 06:12:43;;;;;;;7.07;6.40;;;13.80;99.90;;;;;;5014075;28;20725;-65
2023/09/24 06:15:10;;;;;;;6.07;5.57;;;13.90;99.90;;;;;;5018470;28;20217;-65
2023/09/24 06:17:36;;;;;;;6.70;6.03;;;14.00;99.90;;;;;;4997131;28;20671;-65
2023/09/24 06:20:03;;;;;;;6.17;5.57;;;14.00;99.90;;;;;;5019362;28;20196;-65
2023/09/24 06:22:29;;;;;;;10.80;6.30;;;13.90;99.90;;;;;;5015829;28;20218;-65
2023/09/24 06:24:54;;;;;;;7.87;6.57;;;14.00;99.90;;;;;;5018516;28;20207;-65
2023/09/24 06:27:21;;;;;;;6.20;5.73;;;13.90;99.90;;;;;;5018738;28;20272;-66
2023/09/24 06:29:47;;;;;;;8.77;6.37;;;13.80;99.90;;;;;;5015075;28;20215;-71
2023/09/24 06:32:13;;;;;;;7.87;6.23;;;13.70;99.90;;;;;;4995968;28;20720;-61
2023/09/24 06:34:38;;;;;;;7.47;5.70;;;13.70;99.90;;;;;;5015474;28;20199;-60
2023/09/24 06:37:04;;;;;;;7.27;6.40;;;13.80;99.90;;;;;;5000241;28;20234;-62
2023/09/24 06:39:31;;;;;;;7.60;6.90;;;13.80;99.90;;;;;;5019359;28;20191;-61
2023/09/24 06:41:56;;;;;;;9.73;6.63;;;13.80;99.90;;;;;;5017491;28;20270;-62
2023/09/24 06:44:23;;;;;;;7.20;6.20;;;13.70;99.90;;;;;;5013051;28;21028;-62
2023/09/24 06:46:49;;;;;;;6.93;6.03;;;13.70;99.90;;;;;;4996040;28;20237;-61
2023/09/24 06:49:15;;;;;;;6.93;6.30;;;13.70;99.90;;;;;;5013605;28;20888;-62
2023/09/24 06:51:40;;;;;;;7.13;5.60;;;13.70;99.90;;;;;;5016232;28;20212;-61
2023/09/24 06:54:06;;;;;;;7.70;5.33;;;13.60;99.90;;;;;;5010603;28;20952;-61
2023/09/24 06:56:32;;;;;;;6.07;5.57;;;13.80;99.90;;;;;;5014246;28;20218;-63
2023/09/24 06:58:57;;;;;;;7.70;5.83;;;13.80;99.90;;;;;;4993596;28;20656;-63
2023/09/24 07:01:23;;;;;;;8.33;5.47;;;13.90;99.90;;;;;;5015911;28;20205;-63
2023/09/24 07:03:48;;;;;;;6.50;5.77;;;13.90;99.90;;;;;;5014115;28;20201;-64
2023/09/24 07:06:15;;;;;;;5.73;5.07;;;14.10;99.90;;;;;;5013006;28;20212;-61
2023/09/24 07:08:40;;;;;;;5.80;5.20;;;14.10;99.90;;;;;;5016734;28;20283;-68
2023/09/24 07:11:37;;;;;;;6.50;5.27;;;14.20;99.90;;;;;;5022469;28;20213;-63
2023/09/24 07:14:06;;;;;;;7.67;4.67;;;14.20;99.90;;;;;;5020519;28;20704;-62
2023/09/24 07:16:32;;;;;;;5.20;4.80;;;14.20;99.90;;;;;;5021314;28;21035;-66
2023/09/24 07:18:58;;;;;;;8.17;5.17;;;14.20;99.90;;;;;;5017394;28;20334;-63
2023/09/24 07:21:26;;;;;;;6.83;4.87;;;14.30;99.90;;;;;;4999214;28;20207;-64
2023/09/24 07:23:58;;;;;;;5.57;5.07;;;14.50;99.90;;;;;;4994715;28;20678;-65
2023/09/24 07:26:24;;;;;;;5.73;4.43;;;14.60;99.90;;;;;;5015948;28;20690;-64
2023/09/24 07:28:50;;;;;;;5.00;4.47;;;14.60;99.90;;;;;;5014144;28;20247;-63
2023/09/24 07:31:21;;;;;;;4.93;4.53;;;14.50;99.90;;;;;;5022491;28;20226;-64
2023/09/24 07:33:48;;;;;;;7.17;4.40;;;14.60;99.90;;;;;;5015801;28;20254;-64
2023/09/24 07:36:14;;;;;;;5.80;4.70;;;14.80;99.90;;;;;;5018352;28;20266;-64
2023/09/24 07:38:40;;;;;;;5.23;4.00;;;14.60;99.90;;;;;;5011789;28;20269;-61
2023/09/24 07:41:09;;;;;;;5.20;4.70;;;14.50;99.90;;;;;;5016444;28;20206;-61
2023/09/24 07:43:41;;;;;;;5.33;4.87;;;14.30;99.90;;;;;;5018410;28;20224;-64
2023/09/24 07:46:11;;;;;;;6.33;5.77;;;14.30;99.90;;;;;;5016178;28;20202;-62
2023/09/24 07:48:36;;;;;;;9.67;5.57;;;14.30;99.90;;;;;;5015292;28;20227;-62
2023/09/24 07:51:02;;;;;;;6.10;5.63;;;14.50;99.90;;;;;;5016696;28;20862;-60
2023/09/24 07:53:27;;;;;;;6.07;5.10;;;14.70;99.90;;;;;;5019764;28;20202;-62
2023/09/24 07:55:57;;;;;;;6.17;5.63;;;14.90;99.90;;;;;;5012435;28;20191;-67
2023/09/24 07:58:24;;;;;;;6.47;4.77;;;14.90;99.90;;;;;;5009406;28;20290;-66
2023/09/24 08:00:50;;;;;;;4.13;3.83;;;14.70;99.90;;;;;;5021579;28;20199;-66
2023/09/24 08:03:16;;;;;;;5.73;4.63;;;14.80;99.90;;;;;;5008873;28;20217;-61
2023/09/24 08:05:48;;;;;;;4.70;3.77;;;15.00;99.90;;;;;;5011088;28;20196;-62
2023/09/24 08:08:14;;;;;;;3.80;3.50;;;14.80;99.90;;;;;;5017381;28;20206;-60
2023/09/24 08:10:40;;;;;;;4.00;3.70;;;14.90;99.90;;;;;;4998811;28;20203;-62
2023/09/24 08:13:05;;;;;;;5.87;4.10;;;14.80;99.90;;;;;;5012791;28;20209;-65
2023/09/24 08:15:31;;;;;;;7.07;3.80;;;14.80;99.90;;;;;;5015124;28;20203;-65
2023/09/24 08:17:57;;;;;;;6.03;3.70;;;14.80;99.90;;;;;;5017697;28;20919;-64
2023/09/24 08:20:22;;;;;;;4.33;3.73;;;15.00;99.90;;;;;;5014008;28;20187;-66
2023/09/24 08:22:48;;;;;;;3.93;3.53;;;15.30;99.90;;;;;;5013663;28;20692;-66
2023/09/24 08:25:14;;;;;;;4.23;3.30;;;15.30;99.90;;;;;;5012916;28;20277;-66
2023/09/24 08:27:40;;;;;;;4.70;3.63;;;15.30;99.90;;;;;;5010099;28;20228;-61
2023/09/24 08:30:06;;;;;;;3.80;3.40;;;15.00;99.90;;;;;;5015449;28;20585;-59
2023/09/24 08:32:31;;;;;;;4.43;3.07;;;15.20;99.90;;;;;;5009648;28;20207;-59
2023/09/24 08:34:57;;;;;;;3.80;3.20;;;15.40;99.90;;;;;;5017368;28;20257;-61
2023/09/24 08:37:23;;;;;;;4.47;3.03;;;15.40;99.90;;;;;;5016246;28;20290;-64
2023/09/24 08:39:48;;;;;;;4.00;3.67;;;15.60;99.90;;;;;;5014987;28;20683;-61
2023/09/24 08:42:17;;;;;;;3.77;3.47;;;15.60;99.90;;;;;;5008359;28;20203;-61
2023/09/24 08:44:44;;;;;;;5.30;3.27;;;15.70;99.90;;;;;;4997940;28;20536;-61
2023/09/24 08:47:10;;;;;;;5.83;3.10;;;15.70;99.90;;;;;;5015910;28;20204;-61
2023/09/24 08:49:36;;;;;;;5.87;3.30;;;15.70;99.90;;;;;;5012719;28;20226;-60
2023/09/24 08:52:03;;;;;;;4.70;3.03;;;15.70;99.90;;;;;;5015189;28;20208;-60
2023/09/24 08:54:30;;;;;;;6.13;4.00;;;15.90;99.90;;;;;;4995650;28;21059;-61
2023/09/24 08:56:56;;;;;;;15.20;4.10;;;15.90;99.90;;;;;;4998513;28;20230;-63
2023/09/24 08:59:22;;;;;;;5.17;4.10;;;15.50;99.90;;;;;;4997814;28;20292;-66
2023/09/24 09:01:54;;;;;;;4.57;3.80;;;15.50;99.90;;;;;;4996829;28;20209;-61
2023/09/24 09:04:20;;;;;;;4.40;4.00;;;15.30;99.90;;;;;;5019681;28;20203;-66
2023/09/24 09:06:45;;;;;;;4.40;4.00;;;15.30;99.90;;;;;;5014883;28;20224;-66
2023/09/24 09:09:11;;;;;;;5.97;3.20;;;15.30;99.90;;;;;;5011577;28;20223;-65
2023/09/24 09:11:41;;;;;;;5.87;3.37;;;15.60;99.90;;;;;;5016911;28;20203;-61
2023/09/24 09:14:07;;;;;;;4.10;3.57;;;15.80;99.90;;;;;;5017339;28;20234;-62
2023/09/24 09:16:51;;;;;;;3.50;3.20;;;15.90;99.90;;;;;;5020047;28;20276;-62
2023/09/24 09:19:17;;;;;;;3.23;2.93;;;16.00;99.90;;;;;;5017367;28;20204;-62
2023/09/24 09:21:43;;;;;;;4.43;3.50;;;15.70;99.90;;;;;;5024183;28;20881;-62
2023/09/24 09:24:25;;;;;;;5.10;3.90;;;15.50;99.90;;;;;;5015781;28;20226;-65
2023/09/24 09:26:57;;;;;;;4.37;3.10;;;15.40;99.90;;;;;;4999016;28;20217;-61
2023/09/24 09:29:24;;;;;;;5.93;3.30;;;15.50;99.90;;;;;;5017809;28;20229;-65
2023/09/24 09:31:50;;;;;;;5.87;3.90;;;15.70;99.90;;;;;;5016251;28;20204;-61
2023/09/24 09:34:16;;;;;;;4.47;3.80;;;15.60;99.90;;;;;;5021070;28;20195;-62
2023/09/24 09:36:42;;;;;;;5.03;2.93;;;15.80;99.90;;;;;;4999776;28;20535;-61
2023/09/24 09:39:08;;;;;;;2.50;2.30;;;16.00;99.90;;;;;;5024611;28;21129;-62
2023/09/24 09:41:34;;;;;;;4.90;2.87;;;16.10;99.90;;;;;;5020740;28;20191;-62
2023/09/24 09:44:06;;;;;;;4.43;2.20;;;16.10;99.90;;;;;;5011594;28;20218;-62
2023/09/24 09:46:35;;;;;;;4.37;2.50;;;16.00;99.90;;;;;;5022855;28;20351;-61
2023/09/24 09:49:07;;;;;;;3.27;2.37;;;16.00;99.90;;;;;;5005025;28;20249;-66
2023/09/24 09:51:44;;;;;;;3.40;2.43;;;16.20;99.90;;;;;;5019695;28;20578;-61
2023/09/24 09:54:11;;;;;;;2.83;2.53;;;16.30;99.90;;;;;;5009202;28;20195;-61
2023/09/24 09:56:37;;;;;;;3.07;2.77;;;16.30;99.90;;;;;;5018534;28;20199;-66
2023/09/24 09:59:07;;;;;;;2.63;2.37;;;16.60;99.90;;;;;;5012482;28;20636;-63
2023/09/24 10:01:33;;;;;;;5.17;2.30;;;16.30;99.90;;;;;;5013687;28;20215;-63
2023/09/24 10:04:04;;;;;;;3.80;2.10;;;16.40;99.90;;;;;;4996066;28;20203;-62
2023/09/24 10:06:37;;;;;;;3.50;2.00;;;16.40;99.90;;;;;;5013840;28;20219;-64
2023/09/24 10:09:25;;;;;;;3.20;1.80;;;16.60;99.90;;;;;;5019484;28;20759;-61
2023/09/24 10:11:52;;;;;;;3.03;2.37;;;16.80;99.90;;;;;;5014317;28;20227;-60
2023/09/24 10:14:42;;;;;;;5.80;2.40;;;16.70;99.90;;;;;;5009041;28;20202;-61
2023/09/24 10:17:17;;;;;;;2.47;2.10;;;16.90;99.90;;;;;;5001492;28;20208;-60
2023/09/24 10:19:55;;;;;;;4.00;1.97;;;16.90;99.90;;;;;;5002621;28;20310;-66
2023/09/24 10:22:26;;;;;;;5.23;2.40;;;17.00;99.90;;;;;;5014780;28;20188;-64
2023/09/24 10:24:52;;;;;;;2.93;2.03;;;17.20;99.90;;;;;;5002118;28;20197;-64
2023/09/24 10:27:25;;;;;;;1.87;1.77;;;17.20;99.90;;;;;;5018904;28;20204;-67
2023/09/24 10:29:52;;;;;;;2.20;1.47;;;17.20;99.90;;;;;;5017901;28;20219;-66
2023/09/24 10:32:20;;;;;;;3.40;2.00;;;17.30;99.90;;;;;;5001640;28;20195;-68
2023/09/24 10:34:54;;;;;;;3.67;1.70;;;17.40;99.90;;;;;;5015915;28;20677;-64
2023/09/24 10:37:22;;;;;;;2.83;1.47;;;17.60;99.90;;;;;;4995884;28;20191;-61
2023/09/24 10:39:59;;;;;;;3.00;1.73;;;17.70;99.90;;;;;;5019802;28;20218;-66
2023/09/24 10:42:30;;;;;;;5.50;1.90;;;17.60;99.90;;;;;;5023856;28;20217;-63
2023/09/24 10:45:08;;;;;;;1.73;1.50;;;17.60;99.90;;;;;;4996088;28;20199;-67
2023/09/24 10:47:36;;;;;;;2.10;1.37;;;17.70;99.90;;;;;;5012157;28;20225;-66
2023/09/24 10:50:03;;;;;;;2.77;1.43;;;17.80;99.90;;;;;;4999123;28;20232;-66
2023/09/24 10:52:44;;;;;;;4.63;1.47;;;18.00;99.90;;;;;;5015015;28;20238;-66
2023/09/24 10:55:12;;;;;;;4.50;1.57;;;18.00;99.90;;;;;;5009414;28;20212;-60
2023/09/24 10:57:38;;;;;;;1.70;1.43;;;18.10;99.90;;;;;;5020057;28;20304;-60
2023/09/24 11:00:12;;;;;;;1.83;1.43;;;18.20;99.90;;;;;;5019175;28;20309;-60
2023/09/24 11:02:41;;;;;;;1.23;1.10;;;18.40;99.90;;;;;;5017574;28;21900;-60
2023/09/24 11:05:07;;;;;;;3.40;1.43;;;18.40;99.90;;;;;;5020180;28;20321;-61
2023/09/24 11:07:33;;;;;;;2.20;2.00;;;18.80;99.90;;;;;;5012606;28;20209;-60
2023/09/24 11:09:59;;;;;;;2.33;1.40;;;19.10;99.90;;;;;;5016711;28;20525;-61
2023/09/24 11:12:24;;;;;;;5.03;1.70;;;19.10;99.90;;;;;;5009593;28;20721;-62
2023/09/24 11:14:56;;;;;;;3.30;1.57;;;19.00;99.90;;;;;;5017448;28;20199;-60
2023/09/24 11:17:23;;;;;;;3.47;1.87;;;19.30;99.90;;;;;;5014430;28;20202;-59
2023/09/24 11:19:49;;;;;;;1.23;1.13;;;19.40;99.90;;;;;;5021180;28;20203;-60
2023/09/24 11:22:33;;;;;;;2.00;1.03;;;19.30;99.90;;;;;;5012541;28;20303;-61
2023/09/24 11:25:13;;;;;;;2.50;0.93;;;18.80;99.90;;;;;;5012068;28;20256;-59
2023/09/24 11:27:48;;;;;;;3.30;1.30;;;18.60;99.90;;;;;;5017453;28;20202;-63
2023/09/24 11:30:15;;;;;;;3.60;1.37;;;18.20;99.90;;;;;;5009775;28;20975;-63
2023/09/24 11:32:43;;;;;;;3.13;1.13;;;18.00;99.90;;;;;;5014331;28;20293;-63
2023/09/24 11:35:10;;;;;;;2.30;1.00;;;18.00;99.90;;;;;;5011966;28;20206;-64
2023/09/24 11:37:47;;;;;;;1.17;1.00;;;18.10;99.90;;;;;;5014278;28;20212;-65
2023/09/24 11:40:30;;;;;;;2.43;1.27;;;18.30;99.90;;;;;;5014012;28;20207;-62
2023/09/24 11:43:00;;;;;;;1.53;1.20;;;18.80;99.90;;;;;;4990302;28;20199;-62
2023/09/24 11:45:38;;;;;;;4.17;1.40;;;19.70;99.90;;;;;;5014669;28;20217;-62
2023/09/24 11:48:10;;;;;;;1.40;0.87;;;20.20;99.90;;;;;;5008746;28;20936;-65
2023/09/24 11:50:36;;;;;;;1.57;1.00;;;20.70;98.10;;;;;;5012960;28;20210;-62
2023/09/24 11:53:02;;;;;;;2.40;1.20;;;20.90;98.30;;;;;;5021807;28;20206;-60
2023/09/24 11:55:28;;;;;;;0.90;0.90;;;21.00;97.10;;;;;;5004350;28;20820;-60
2023/09/24 11:57:53;;;;;;;1.10;1.07;;;21.10;95.80;;;;;;5017890;28;20207;-61
2023/09/24 12:00:19;;;;;;;3.63;1.50;;;21.80;94.20;;;;;;5015627;28;20290;-61
2023/09/24 12:02:45;;;;;;;1.67;1.30;;;21.90;94.90;;;;;;5010080;28;20211;-60
2023/09/24 12:05:10;;;;;;;3.63;1.40;;;22.20;94.20;;;;;;5008087;28;20254;-61
2023/09/24 12:07:36;;;;;;;4.13;1.45;;;22.50;92.70;;;;;;5013140;28;20231;-64
2023/09/24 12:10:01;;;;;;;1.58;1.48;;;22.20;92.80;;;;;;5010299;28;20663;-62
2023/09/24 12:12:27;;;;;;;1.00;1.00;;;21.80;93.90;;;;;;4988394;28;20200;-61
2023/09/24 12:14:53;;;;;;;1.27;1.13;;;21.50;94.50;;;;;;5008424;28;20697;-61
2023/09/24 12:17:22;;;;;;;1.63;1.20;;;21.90;92.30;;;;;;5013920;28;20204;-61
2023/09/24 12:19:48;;;;;;;1.83;1.20;;;21.70;93.10;;;;;;5017375;28;20190;-62
2023/09/24 12:22:16;;;;;;;1.30;1.10;;;21.60;93.90;;;;;;5009919;28;20489;-61
2023/09/24 12:24:41;;;;;;;1.83;1.08;;;21.20;95.10;;;;;;5009114;28;20929;-61
2023/09/24 12:27:07;;;;;;;2.65;1.85;;;21.60;95.30;;;;;;5020708;28;20207;-62
2023/09/24 12:29:33;;;;;;;2.63;1.33;;;21.90;94.30;;;;;;4997458;28;20223;-61
2023/09/24 12:31:59;;;;;;;2.67;1.38;;;22.10;92.50;;;;;;5012336;28;20211;-61
2023/09/24 12:34:24;;;;;;;2.83;1.10;;;22.20;92.60;;;;;;5014358;28;20779;-60
2023/09/24 12:36:50;;;;;;;3.65;1.30;;;22.40;91.50;;;;;;5015341;28;20570;-61
2023/09/24 12:39:19;;;;;;;1.58;1.20;;;23.40;89.70;;;;;;4986413;28;20247;-60
2023/09/24 12:41:48;;;;;;;1.67;1.33;;;23.40;90.40;;;;;;4990671;28;20764;-66
2023/09/24 12:44:14;;;;;;;2.88;1.67;;;23.00;90.50;;;;;;5011252;28;20188;-61
2023/09/24 12:46:40;;;;;;;1.30;1.20;;;22.30;93.00;;;;;;5010800;28;20234;-63